createdAt,value
2017-09-03T00:00:11.502Z,7.10
2017-09-03T00:02:38.139Z,7.20
2017-09-03T00:05:04.767Z,7.93
2017-09-03T00:07:31.378Z,8.20
2017-09-03T00:09:58.012Z,9.00
2017-09-03T00:12:24.647Z,9.00
2017-09-03T00:14:51.281Z,9.13
2017-09-03T00:17:17.909Z,8.60
2017-09-03T00:19:44.516Z,8.90
2017-09-03T00:22:11.142Z,7.67
2017-09-03T00:24:37.778Z,9.17
2017-09-03T00:27:04.409Z,8.97
2017-09-03T00:29:31.009Z,5.63
2017-09-03T00:31:57.671Z,7.17
2017-09-03T00:34:24.302Z,8.40
2017-09-03T00:36:50.915Z,8.50
2017-09-03T00:39:17.542Z,9.37
2017-09-03T00:41:44.573Z,9.93
2017-09-03T00:44:11.181Z,8.93
2017-09-03T00:46:37.834Z,10.00
2017-09-03T00:49:04.453Z,9.57
2017-09-03T00:51:31.091Z,9.80
2017-09-03T00:53:57.698Z,7.30
2017-09-03T00:56:24.341Z,6.67
2017-09-03T00:58:50.960Z,6.70
2017-09-03T01:01:17.587Z,6.60
2017-09-03T01:03:44.210Z,7.80
2017-09-03T01:06:10.827Z,6.83
2017-09-03T01:08:37.446Z,7.60
2017-09-03T01:11:04.081Z,7.10
2017-09-03T01:13:30.715Z,8.27
2017-09-03T01:15:57.327Z,6.30
2017-09-03T01:18:23.951Z,6.17
2017-09-03T01:20:50.580Z,5.30
2017-09-03T01:23:17.182Z,6.17
2017-09-03T01:25:43.811Z,5.77
2017-09-03T01:28:10.411Z,5.63
2017-09-03T01:30:37.037Z,6.50
2017-09-03T01:33:03.646Z,7.27
2017-09-03T01:35:30.251Z,8.77
2017-09-03T01:37:56.894Z,6.40
2017-09-03T01:40:23.518Z,6.10
2017-09-03T01:42:50.146Z,6.10
2017-09-03T01:45:16.763Z,6.07
2017-09-03T01:47:43.415Z,5.03
2017-09-03T01:50:10.039Z,7.72
2017-09-03T01:52:36.680Z,6.53
2017-09-03T01:55:03.321Z,7.37
2017-09-03T01:57:29.961Z,7.23
2017-09-03T01:59:56.619Z,6.97
2017-09-03T02:02:23.230Z,5.70
2017-09-03T02:04:49.858Z,6.30
2017-09-03T02:07:16.486Z,6.53
2017-09-03T02:09:43.111Z,6.87
2017-09-03T02:12:09.750Z,7.00
2017-09-03T02:14:36.381Z,8.40
2017-09-03T02:17:03.040Z,7.78
2017-09-03T02:19:29.659Z,6.57
2017-09-03T02:21:56.323Z,5.70
2017-09-03T02:24:22.932Z,5.22
2017-09-03T02:26:49.575Z,7.75
2017-09-03T02:29:16.226Z,6.45
2017-09-03T02:31:42.868Z,7.72
2017-09-03T02:34:09.513Z,7.45
2017-09-03T02:36:36.131Z,7.75
2017-09-03T02:39:02.778Z,8.30
2017-09-03T02:41:29.390Z,6.30
2017-09-03T02:43:56.021Z,5.67
2017-09-03T02:46:22.626Z,5.37
2017-09-03T02:48:49.278Z,7.20
2017-09-03T02:51:15.895Z,6.50
2017-09-03T02:53:42.514Z,7.30
2017-09-03T02:56:09.160Z,5.90
2017-09-03T02:58:35.799Z,8.07
2017-09-03T03:01:02.434Z,4.60
2017-09-03T03:03:29.062Z,6.05
2017-09-03T03:05:55.675Z,8.50
2017-09-03T03:08:22.309Z,9.30
2017-09-03T03:10:48.971Z,10.00
2017-09-03T03:13:15.635Z,5.95
2017-09-03T03:15:42.270Z,5.00
2017-09-03T03:18:08.886Z,6.23
2017-09-03T03:20:35.535Z,6.07
2017-09-03T03:23:02.151Z,7.70
2017-09-03T03:25:28.770Z,7.10
2017-09-03T03:27:55.419Z,7.00
2017-09-03T03:30:22.040Z,8.33
2017-09-03T03:32:48.654Z,8.25
2017-09-03T03:35:15.295Z,6.10
2017-09-03T03:37:41.949Z,5.47
2017-09-03T03:40:08.590Z,6.07
2017-09-03T03:42:35.215Z,6.32
2017-09-03T03:45:01.872Z,7.60
2017-09-03T03:47:28.500Z,7.70
2017-09-03T03:49:55.140Z,8.43
2017-09-03T03:52:21.782Z,7.85
2017-09-03T03:54:48.391Z,8.55
2017-09-03T03:57:15.124Z,6.90
2017-09-03T03:59:41.828Z,5.28
2017-09-03T04:02:08.467Z,6.00
2017-09-03T04:04:35.090Z,6.00
2017-09-03T04:07:01.715Z,7.15
2017-09-03T04:09:28.366Z,5.82
2017-09-03T04:11:54.994Z,4.95
2017-09-03T04:14:21.634Z,5.97
2017-09-03T04:16:48.245Z,5.35
2017-09-03T04:19:14.878Z,6.70
2017-09-03T04:21:41.481Z,6.25
2017-09-03T04:24:08.132Z,6.55
2017-09-03T04:26:34.763Z,8.90
2017-09-03T04:29:01.383Z,8.35
2017-09-03T04:31:28.036Z,9.23
2017-09-03T04:33:54.664Z,8.50
2017-09-03T04:36:21.307Z,12.00
2017-09-03T04:38:47.968Z,10.00
2017-09-03T04:41:14.598Z,10.00
2017-09-03T04:43:41.243Z,12.10
2017-09-03T04:46:07.862Z,11.97
2017-09-03T04:48:34.520Z,11.45
2017-09-03T04:51:01.158Z,11.75
2017-09-03T04:53:27.763Z,12.33
2017-09-03T04:55:54.393Z,12.20
2017-09-03T04:58:21.048Z,11.23
2017-09-03T05:00:47.681Z,13.85
2017-09-03T05:03:14.327Z,11.65
2017-09-03T05:05:40.969Z,5.70
2017-09-03T05:08:07.611Z,6.87
2017-09-03T05:10:34.254Z,9.13
2017-09-03T05:13:00.874Z,9.23
2017-09-03T05:15:27.500Z,8.60
2017-09-03T05:17:54.166Z,9.50
2017-09-03T05:20:20.783Z,10.57
2017-09-03T05:22:47.414Z,10.80
2017-09-03T05:25:14.052Z,13.30
2017-09-03T05:27:40.709Z,13.88
2017-09-03T05:30:07.334Z,14.18
2017-09-03T05:32:33.949Z,15.03
2017-09-03T05:35:00.579Z,16.40
2017-09-03T05:37:27.217Z,15.20
2017-09-03T05:39:53.860Z,14.27
2017-09-03T05:42:20.497Z,16.17
2017-09-03T05:44:47.105Z,15.68
2017-09-03T05:47:13.758Z,14.17
2017-09-03T05:49:40.391Z,16.60
2017-09-03T05:52:07.015Z,15.27
2017-09-03T05:54:33.628Z,16.40
2017-09-03T05:57:00.275Z,16.07
2017-09-03T05:59:26.891Z,17.60
2017-09-03T06:01:53.511Z,18.03
2017-09-03T06:04:20.159Z,17.90
2017-09-03T06:06:46.791Z,17.07
2017-09-03T06:09:13.443Z,16.83
2017-09-03T06:11:40.067Z,19.60
2017-09-03T06:14:06.701Z,19.93
2017-09-03T06:16:33.318Z,17.37
2017-09-03T06:18:59.932Z,17.10
2017-09-03T06:21:26.594Z,17.00
2017-09-03T06:23:53.201Z,16.97
2017-09-03T06:26:19.838Z,17.93
2017-09-03T06:28:46.468Z,17.57
2017-09-03T06:31:13.111Z,18.70
2017-09-03T06:33:39.740Z,17.43
2017-09-03T06:36:06.390Z,19.07
2017-09-03T06:38:33.035Z,19.07
2017-09-03T06:40:59.678Z,19.63
2017-09-03T06:43:26.323Z,19.27
2017-09-03T06:45:52.945Z,18.17
2017-09-03T06:48:19.556Z,21.83
2017-09-03T06:50:46.192Z,20.23
2017-09-03T06:53:12.843Z,21.47
2017-09-03T06:55:39.465Z,19.53
2017-09-03T06:58:06.097Z,19.97
2017-09-03T07:00:32.722Z,20.20
2017-09-03T07:02:59.355Z,23.00
2017-09-03T07:05:26.031Z,20.23
2017-09-03T07:07:52.664Z,22.70
2017-09-03T07:10:19.303Z,23.97
2017-09-03T07:12:45.927Z,23.50
2017-09-03T07:15:12.572Z,21.83
2017-09-03T07:17:39.208Z,22.70
2017-09-03T07:20:05.829Z,21.90
2017-09-03T07:22:32.474Z,22.73
2017-09-03T07:24:59.087Z,22.53
2017-09-03T07:27:25.751Z,22.30
2017-09-03T07:29:52.373Z,21.73
2017-09-03T07:32:19.002Z,20.67
2017-09-03T07:34:45.647Z,22.03
2017-09-03T07:37:12.314Z,21.83
2017-09-03T07:39:38.959Z,22.53
2017-09-03T07:42:05.591Z,23.90
2017-09-03T07:44:32.230Z,20.13
2017-09-03T07:46:58.859Z,21.97
2017-09-03T07:49:25.494Z,20.50
2017-09-03T07:51:52.123Z,20.70
2017-09-03T07:54:18.776Z,24.40
2017-09-03T07:56:45.412Z,23.00
2017-09-03T07:59:12.039Z,22.37
2017-09-03T08:01:38.684Z,23.60
2017-09-03T08:04:05.312Z,24.17
2017-09-03T08:06:31.971Z,23.80
2017-09-03T08:08:59.147Z,23.30
2017-09-03T08:11:25.799Z,23.03
2017-09-03T08:13:52.418Z,22.80
2017-09-03T08:16:19.041Z,26.40
2017-09-03T08:18:45.684Z,24.30
2017-09-03T08:21:12.327Z,24.63
2017-09-03T08:23:38.971Z,26.20
2017-09-03T08:26:05.608Z,23.77
2017-09-03T08:28:32.230Z,25.20
2017-09-03T08:30:58.895Z,24.50
2017-09-03T08:33:25.509Z,25.23
2017-09-03T08:35:52.171Z,24.47
2017-09-03T08:38:18.788Z,24.47
2017-09-03T08:40:45.419Z,22.63
2017-09-03T08:43:12.043Z,21.97
2017-09-03T08:45:38.680Z,21.63
2017-09-03T08:48:05.315Z,22.63
2017-09-03T08:50:31.960Z,20.77
2017-09-03T08:52:58.575Z,19.87
2017-09-03T08:55:25.245Z,21.30
2017-09-03T08:57:51.884Z,21.60
2017-09-03T09:00:18.512Z,22.77
2017-09-03T09:02:45.133Z,20.93
2017-09-03T09:05:11.774Z,22.87
2017-09-03T09:07:38.395Z,21.83
2017-09-03T09:10:05.026Z,21.87
2017-09-03T09:12:31.682Z,21.00
2017-09-03T09:14:58.298Z,21.67
2017-09-03T09:17:24.943Z,20.97
2017-09-03T09:19:51.575Z,22.37
2017-09-03T09:22:18.194Z,21.20
2017-09-03T09:24:44.835Z,20.00
2017-09-03T09:27:11.496Z,21.40
2017-09-03T09:29:38.138Z,22.57
2017-09-03T09:32:04.775Z,22.17
2017-09-03T09:34:31.427Z,21.37
2017-09-03T09:36:58.049Z,20.67
2017-09-03T09:39:24.670Z,20.37
2017-09-03T09:41:51.308Z,20.70
2017-09-03T09:44:17.959Z,17.53
2017-09-03T09:46:44.623Z,17.33
2017-09-03T09:49:11.246Z,17.67
2017-09-03T09:51:37.941Z,18.63
2017-09-03T09:54:04.576Z,16.87
2017-09-03T09:56:31.223Z,18.47
2017-09-03T09:58:57.889Z,18.33
2017-09-03T10:01:24.490Z,18.03
2017-09-03T10:03:51.134Z,18.30
2017-09-03T10:06:17.782Z,16.10
2017-09-03T10:08:44.435Z,15.37
2017-09-03T10:11:11.071Z,15.03
2017-09-03T10:13:37.720Z,17.87
2017-09-03T10:16:04.350Z,12.40
2017-09-03T10:18:31.008Z,12.90
2017-09-03T10:20:57.636Z,10.57
2017-09-03T10:23:24.298Z,9.70
2017-09-03T10:25:50.914Z,8.60
2017-09-03T10:28:17.564Z,9.77
2017-09-03T10:30:44.180Z,8.23
2017-09-03T10:33:10.829Z,10.73
2017-09-03T10:35:37.470Z,11.37
2017-09-03T10:38:04.104Z,12.00
2017-09-03T10:40:30.760Z,14.83
2017-09-03T10:42:57.400Z,14.30
2017-09-03T10:45:24.051Z,14.50
2017-09-03T10:47:50.662Z,13.70
2017-09-03T10:50:17.297Z,13.97
2017-09-03T10:52:43.930Z,14.03
2017-09-03T10:55:10.558Z,12.80
2017-09-03T10:57:37.193Z,13.07
2017-09-03T11:00:03.860Z,11.40
2017-09-03T11:02:30.507Z,10.10
2017-09-03T11:04:57.135Z,8.70
2017-09-03T11:07:23.788Z,12.50
2017-09-03T11:09:50.444Z,11.90
2017-09-03T11:12:17.059Z,12.60
2017-09-03T11:14:43.715Z,10.47
2017-09-03T11:17:10.335Z,9.43
2017-09-03T11:19:36.985Z,8.27
2017-09-03T11:22:03.608Z,7.20
2017-09-03T11:24:31.866Z,5.80
2017-09-03T11:26:58.501Z,8.53
2017-09-03T11:29:25.132Z,9.70
2017-09-03T11:31:51.742Z,9.60
2017-09-03T11:34:18.382Z,9.10
2017-09-03T11:36:46.194Z,9.57
2017-09-03T11:39:12.815Z,9.20
2017-09-03T11:41:39.658Z,8.70
2017-09-03T11:44:06.294Z,7.87
2017-09-03T11:46:32.961Z,8.03
2017-09-03T11:48:59.608Z,8.10
2017-09-03T11:51:26.264Z,5.50
2017-09-03T11:53:52.955Z,8.60
2017-09-03T11:56:19.588Z,10.80
2017-09-03T11:58:46.254Z,10.20
2017-09-03T12:01:12.918Z,9.53
2017-09-03T12:03:39.543Z,9.13
2017-09-03T12:06:07.036Z,7.77
2017-09-03T12:08:33.687Z,6.50
2017-09-03T12:11:00.307Z,7.37
2017-09-03T12:13:27.078Z,5.80
2017-09-03T12:15:53.690Z,6.63
2017-09-03T12:18:20.311Z,6.07
2017-09-03T12:20:46.945Z,6.33
2017-09-03T12:23:13.583Z,5.90
2017-09-03T12:25:40.219Z,6.43
2017-09-03T12:28:06.825Z,5.40
2017-09-03T12:30:33.448Z,4.80
2017-09-03T12:33:00.186Z,6.00
2017-09-03T12:35:26.815Z,6.97
2017-09-03T12:37:53.496Z,7.30
2017-09-03T12:40:20.164Z,6.60
2017-09-03T12:42:46.800Z,7.73
2017-09-03T12:45:13.439Z,6.83
2017-09-03T12:47:40.099Z,5.80
2017-09-03T12:50:06.726Z,5.70
2017-09-03T12:52:33.355Z,4.93
2017-09-03T12:54:59.980Z,5.60
2017-09-03T12:57:26.602Z,7.20
2017-09-03T12:59:53.236Z,6.30
2017-09-03T13:02:19.876Z,7.33
2017-09-03T13:04:46.491Z,6.10
2017-09-03T13:07:13.133Z,5.50
2017-09-03T13:09:39.744Z,6.00
2017-09-03T13:12:06.386Z,4.90
2017-09-03T13:14:32.999Z,4.60
2017-09-03T13:16:59.629Z,5.57
2017-09-03T13:19:26.277Z,5.13
2017-09-03T13:21:52.887Z,4.10
2017-09-03T13:24:19.527Z,3.93
2017-09-03T13:26:46.262Z,4.07
2017-09-03T13:29:12.917Z,4.10
2017-09-03T13:31:39.522Z,3.43
2017-09-03T13:34:06.154Z,4.20
2017-09-03T13:36:32.779Z,3.70
2017-09-03T13:38:59.421Z,4.20
2017-09-03T13:41:26.636Z,3.23
2017-09-03T13:43:53.258Z,4.60
2017-09-03T13:46:19.894Z,4.50
2017-09-03T13:48:46.521Z,4.23
2017-09-03T13:51:13.182Z,3.80
2017-09-03T13:53:39.819Z,4.00
2017-09-03T13:56:06.450Z,3.40
2017-09-03T13:58:33.075Z,4.37
2017-09-03T14:00:59.716Z,3.83
2017-09-03T14:03:26.366Z,3.90
2017-09-03T14:05:53.016Z,3.43
2017-09-03T14:08:19.626Z,3.03
2017-09-03T14:10:46.278Z,3.13
2017-09-03T14:13:12.903Z,3.10
2017-09-03T14:15:39.524Z,2.20
2017-09-03T14:18:06.151Z,2.60
2017-09-03T14:20:32.766Z,2.30
2017-09-03T14:22:59.413Z,2.60
2017-09-03T14:25:26.023Z,2.93
2017-09-03T14:27:52.657Z,2.80
2017-09-03T14:30:19.278Z,2.80
2017-09-03T14:32:45.892Z,2.60
2017-09-03T14:35:12.539Z,2.57
2017-09-03T14:37:39.156Z,2.47
2017-09-03T14:40:05.787Z,2.60
2017-09-03T14:42:32.420Z,2.70
2017-09-03T14:44:59.044Z,4.30
2017-09-03T14:47:25.687Z,2.80
2017-09-03T14:49:52.324Z,2.60
2017-09-03T14:52:18.951Z,3.80
2017-09-03T14:54:45.561Z,2.90
2017-09-03T14:57:12.239Z,3.53
2017-09-03T14:59:38.867Z,2.70
2017-09-03T15:02:05.511Z,3.20
2017-09-03T15:04:32.155Z,2.80
2017-09-03T15:06:58.780Z,2.90
2017-09-03T15:09:25.425Z,3.10
2017-09-03T15:11:52.035Z,3.27
2017-09-03T15:14:18.684Z,3.13
2017-09-03T15:16:45.328Z,2.33
2017-09-03T15:19:11.936Z,3.10
2017-09-03T15:21:38.607Z,2.60
2017-09-03T15:24:05.224Z,2.63
2017-09-03T15:26:31.862Z,3.10
2017-09-03T15:28:58.473Z,3.13
2017-09-03T15:31:25.096Z,2.93
2017-09-03T15:33:51.718Z,2.80
2017-09-03T15:36:18.345Z,2.67
2017-09-03T15:38:45.002Z,3.07
2017-09-03T15:41:11.623Z,2.70
2017-09-03T15:43:38.260Z,2.90
2017-09-03T15:46:04.877Z,3.40
2017-09-03T15:48:31.515Z,3.33
2017-09-03T15:50:58.132Z,2.87
2017-09-03T15:53:24.778Z,2.63
2017-09-03T15:55:51.395Z,2.87
2017-09-03T15:58:18.040Z,2.93
2017-09-03T16:00:44.640Z,2.60
2017-09-03T16:03:11.308Z,2.87
2017-09-03T16:05:37.948Z,3.03
2017-09-03T16:08:04.592Z,3.10
2017-09-03T16:10:31.212Z,3.37
2017-09-03T16:12:57.859Z,3.67
2017-09-03T16:15:24.473Z,3.03
2017-09-03T16:17:51.119Z,3.00
2017-09-03T16:20:17.761Z,2.80
2017-09-03T16:22:44.402Z,3.80
2017-09-03T16:25:11.057Z,2.90
2017-09-03T16:27:37.661Z,3.80
2017-09-03T16:30:04.283Z,3.70
2017-09-03T16:32:30.916Z,3.00
2017-09-03T16:34:57.524Z,3.00
2017-09-03T16:37:24.166Z,2.67
2017-09-03T16:39:50.797Z,3.20
2017-09-03T16:42:17.416Z,3.60
2017-09-03T16:44:44.077Z,2.93
2017-09-03T16:47:10.717Z,3.10
2017-09-03T16:49:37.328Z,2.90
2017-09-03T16:52:03.952Z,2.80
2017-09-03T16:54:30.592Z,3.20
2017-09-03T16:56:57.231Z,2.77
2017-09-03T16:59:23.873Z,3.10
2017-09-03T17:01:50.512Z,2.77
2017-09-03T17:04:17.161Z,3.23
2017-09-03T17:06:43.809Z,3.47
2017-09-03T17:09:10.429Z,3.27
2017-09-03T17:11:37.358Z,3.37
2017-09-03T17:14:03.995Z,2.93
2017-09-03T17:16:30.618Z,4.07
2017-09-03T17:18:57.271Z,3.43
2017-09-03T17:21:23.879Z,3.57
2017-09-03T17:23:50.499Z,3.70
2017-09-03T17:26:17.185Z,3.43
2017-09-03T17:28:43.797Z,3.97
2017-09-03T17:31:16.335Z,3.80
2017-09-03T17:33:42.970Z,3.80
2017-09-03T17:36:09.619Z,4.20
2017-09-03T17:38:41.289Z,4.10
2017-09-03T17:41:08.908Z,3.60
2017-09-03T17:43:37.374Z,4.03
2017-09-03T17:46:07.850Z,4.13
2017-09-03T17:48:34.495Z,3.67
2017-09-03T17:51:01.097Z,4.93
2017-09-03T17:53:27.788Z,4.00
2017-09-03T17:55:54.413Z,4.10
2017-09-03T17:58:21.090Z,3.90
2017-09-03T18:00:47.729Z,4.47
2017-09-03T18:03:14.375Z,4.93
2017-09-03T18:05:41.032Z,5.23
2017-09-03T18:08:07.639Z,6.30
2017-09-03T18:10:34.318Z,5.73
2017-09-03T18:13:00.951Z,5.23
2017-09-03T18:15:27.599Z,6.80
2017-09-03T18:17:54.250Z,6.60
2017-09-03T18:20:20.896Z,6.13
2017-09-03T18:22:47.556Z,5.10
2017-09-03T18:25:14.180Z,6.87
2017-09-03T18:27:40.827Z,6.30
2017-09-03T18:30:18.050Z,6.60
2017-09-03T18:32:44.678Z,6.27
2017-09-03T18:35:11.335Z,5.87
2017-09-03T18:37:39.644Z,5.83
2017-09-03T18:40:06.300Z,6.70
2017-09-03T18:42:32.941Z,5.90
2017-09-03T18:44:59.579Z,5.27
2017-09-03T18:47:26.221Z,5.47
2017-09-03T18:49:53.430Z,6.30
2017-09-03T18:52:34.823Z,5.97
2017-09-03T18:55:01.471Z,5.80
2017-09-03T18:57:29.596Z,7.13
2017-09-03T18:59:58.900Z,6.23
2017-09-03T19:02:25.556Z,7.07
2017-09-03T19:04:52.902Z,6.10
2017-09-03T19:07:19.502Z,6.80
2017-09-03T19:09:46.135Z,7.03
2017-09-03T19:12:12.829Z,7.03
2017-09-03T19:14:39.458Z,7.70
2017-09-03T19:17:06.108Z,10.10
2017-09-03T19:19:32.758Z,8.20
2017-09-03T19:21:59.416Z,9.03
2017-09-03T19:24:26.067Z,7.93
2017-09-03T19:26:52.728Z,8.70
2017-09-03T19:29:19.369Z,9.60
2017-09-03T19:31:46.020Z,8.57
2017-09-03T19:34:12.676Z,8.83
2017-09-03T19:36:40.047Z,9.03
2017-09-03T19:39:06.699Z,9.67
2017-09-03T19:41:33.416Z,8.97
2017-09-03T19:44:00.024Z,8.13
2017-09-03T19:46:26.695Z,9.60
2017-09-03T19:48:53.338Z,9.83
2017-09-03T19:51:19.987Z,8.50
2017-09-03T19:53:46.603Z,8.57
2017-09-03T19:56:13.246Z,8.90
2017-09-03T19:58:39.898Z,10.20
2017-09-03T20:01:06.535Z,8.50
2017-09-03T20:03:33.179Z,8.37
2017-09-03T20:05:59.786Z,9.10
2017-09-03T20:08:26.420Z,9.00
2017-09-03T20:10:53.058Z,8.40
2017-09-03T20:13:19.681Z,9.30
2017-09-03T20:15:46.302Z,9.70
2017-09-03T20:18:12.962Z,10.40
2017-09-03T20:20:39.585Z,9.90
2017-09-03T20:23:06.243Z,8.63
2017-09-03T20:25:32.861Z,8.10
2017-09-03T20:27:59.515Z,8.60
2017-09-03T20:30:26.131Z,8.97
2017-09-03T20:32:52.753Z,9.10
2017-09-03T20:35:19.395Z,9.27
2017-09-03T20:37:46.006Z,9.47
2017-09-03T20:40:12.666Z,10.20
2017-09-03T20:42:39.297Z,10.00
2017-09-03T20:45:05.923Z,8.63
2017-09-03T20:47:32.561Z,8.50
2017-09-03T20:49:59.199Z,10.30
2017-09-03T20:52:25.871Z,8.30
2017-09-03T20:54:52.500Z,10.00
2017-09-03T20:57:19.140Z,9.00
2017-09-03T20:59:45.777Z,8.67
2017-09-03T21:02:12.413Z,9.60
2017-09-03T21:04:39.054Z,7.90
2017-09-03T21:07:05.679Z,8.13
2017-09-03T21:09:32.340Z,7.80
2017-09-03T21:11:58.947Z,8.10
2017-09-03T21:14:25.586Z,7.87
2017-09-03T21:16:52.223Z,7.27
2017-09-03T21:19:18.853Z,7.90
2017-09-03T21:21:45.455Z,7.63
2017-09-03T21:24:12.119Z,8.30
2017-09-03T21:26:38.734Z,9.23
2017-09-03T21:29:05.371Z,8.23
2017-09-03T21:31:31.978Z,8.50
2017-09-03T21:33:58.635Z,8.20
2017-09-03T21:36:25.263Z,7.67
2017-09-03T21:38:51.906Z,8.90
2017-09-03T21:41:18.534Z,8.53
2017-09-03T21:43:45.158Z,7.90
2017-09-03T21:46:11.795Z,8.77
2017-09-03T21:48:38.432Z,8.03
2017-09-03T21:51:05.078Z,8.53
2017-09-03T21:53:31.723Z,9.33
2017-09-03T21:55:58.339Z,8.30
2017-09-03T21:58:24.995Z,7.40
2017-09-03T22:00:51.611Z,9.40
2017-09-03T22:03:18.247Z,9.03
2017-09-03T22:05:44.880Z,8.50
2017-09-03T22:08:11.534Z,8.63
2017-09-03T22:10:38.168Z,8.40
2017-09-03T22:13:04.832Z,8.47
2017-09-03T22:15:31.449Z,9.47
2017-09-03T22:17:58.057Z,8.87
2017-09-03T22:20:24.685Z,9.10
2017-09-03T22:22:51.308Z,9.30
2017-09-03T22:25:17.951Z,8.50
2017-09-03T22:27:44.615Z,9.27
2017-09-03T22:30:11.260Z,8.17
2017-09-03T22:32:37.875Z,9.30
2017-09-03T22:35:04.501Z,9.57
2017-09-03T22:37:31.117Z,9.10
2017-09-03T22:39:57.719Z,9.20
2017-09-03T22:42:24.358Z,9.50
2017-09-03T22:44:50.974Z,8.03
2017-09-03T22:47:17.622Z,9.90
2017-09-03T22:49:44.232Z,8.03
2017-09-03T22:52:10.849Z,9.37
2017-09-03T22:54:37.475Z,8.83
2017-09-03T22:57:04.087Z,8.20
2017-09-03T22:59:30.722Z,9.20
2017-09-03T23:01:57.376Z,8.90
2017-09-03T23:04:24.008Z,8.93
2017-09-03T23:06:50.646Z,9.77
2017-09-03T23:09:17.277Z,8.60
2017-09-03T23:11:43.899Z,7.60
2017-09-03T23:14:10.517Z,8.43
2017-09-03T23:16:37.160Z,9.43
2017-09-03T23:19:03.779Z,7.33
2017-09-03T23:21:30.386Z,7.90
2017-09-03T23:23:57.003Z,6.87
2017-09-03T23:26:23.640Z,6.80
2017-09-03T23:28:50.267Z,7.70
2017-09-03T23:31:16.887Z,7.60
2017-09-03T23:33:43.535Z,8.33
2017-09-03T23:36:10.150Z,8.20
2017-09-03T23:38:36.804Z,9.80
2017-09-03T23:41:03.421Z,7.43
2017-09-03T23:43:30.059Z,8.77
2017-09-03T23:45:56.686Z,7.63
2017-09-03T23:48:23.290Z,7.43
2017-09-03T23:50:49.914Z,7.80
2017-09-03T23:53:16.514Z,8.40
2017-09-03T23:55:43.155Z,8.03
2017-09-03T23:58:09.764Z,8.77
